sensor_id;sensor_type;location;lat;lon;timestamp;P1;durP1;ratioP1;P2;durP2;ratioP2
36829;SDS011;22767;47.328;9.640;2024-03-06T00:01:47;2.00;;;0.75;;
36829;SDS011;22767;47.328;9.640;2024-03-06T00:04:13;2.30;;;0.90;;
36829;SDS011;22767;47.328;9.640;2024-03-06T00:06:39;1.45;;;0.80;;
36829;SDS011;22767;47.328;9.640;2024-03-06T00:09:05;3.00;;;1.00;;
36829;SDS011;22767;47.328;9.640;2024-03-06T00:11:40;1.00;;;0.68;;
36829;SDS011;22767;47.328;9.640;2024-03-06T00:14:06;1.08;;;0.70;;
36829;SDS011;22767;47.328;9.640;2024-03-06T00:16:32;1.15;;;0.80;;
36829;SDS011;22767;47.328;9.640;2024-03-06T00:18:59;1.75;;;1.10;;
36829;SDS011;22767;47.328;9.640;2024-03-06T00:21:25;2.47;;;0.80;;
36829;SDS011;22767;47.328;9.640;2024-03-06T00:23:57;3.00;;;0.82;;
36829;SDS011;22767;47.328;9.640;2024-03-06T00:26:23;1.35;;;0.60;;
36829;SDS011;22767;47.328;9.640;2024-03-06T00:28:49;0.60;;;0.60;;
36829;SDS011;22767;47.328;9.640;2024-03-06T00:31:15;2.08;;;0.60;;
36829;SDS011;22767;47.328;9.640;2024-03-06T00:33:41;1.98;;;0.80;;
36829;SDS011;22767;47.328;9.640;2024-03-06T00:36:07;1.65;;;0.68;;
36829;SDS011;22767;47.328;9.640;2024-03-06T00:38:34;2.83;;;0.95;;
36829;SDS011;22767;47.328;9.640;2024-03-06T00:41:00;0.98;;;0.80;;
36829;SDS011;22767;47.328;9.640;2024-03-06T00:43:26;2.17;;;0.82;;
36829;SDS011;22767;47.328;9.640;2024-03-06T00:45:59;1.65;;;0.80;;
36829;SDS011;22767;47.328;9.640;2024-03-06T00:48:25;0.88;;;0.70;;
36829;SDS011;22767;47.328;9.640;2024-03-06T00:50:51;1.05;;;0.60;;
36829;SDS011;22767;47.328;9.640;2024-03-06T00:53:17;1.42;;;0.60;;
36829;SDS011;22767;47.328;9.640;2024-03-06T00:55:43;0.98;;;0.60;;
36829;SDS011;22767;47.328;9.640;2024-03-06T00:58:09;0.52;;;0.52;;
36829;SDS011;22767;47.328;9.640;2024-03-06T01:00:36;2.65;;;1.30;;
36829;SDS011;22767;47.328;9.640;2024-03-06T01:03:03;2.42;;;1.60;;
36829;SDS011;22767;47.328;9.640;2024-03-06T01:05:29;0.95;;;0.93;;
36829;SDS011;22767;47.328;9.640;2024-03-06T01:07:55;2.95;;;1.15;;
36829;SDS011;22767;47.328;9.640;2024-03-06T01:10:22;2.53;;;1.25;;
36829;SDS011;22767;47.328;9.640;2024-03-06T01:12:49;3.03;;;1.80;;
36829;SDS011;22767;47.328;9.640;2024-03-06T01:15:15;1.45;;;1.05;;
36829;SDS011;22767;47.328;9.640;2024-03-06T01:17:41;1.30;;;1.10;;
36829;SDS011;22767;47.328;9.640;2024-03-06T01:20:07;1.70;;;1.20;;
36829;SDS011;22767;47.328;9.640;2024-03-06T01:22:33;1.25;;;1.00;;
36829;SDS011;22767;47.328;9.640;2024-03-06T01:25:00;1.95;;;1.00;;
36829;SDS011;22767;47.328;9.640;2024-03-06T01:27:26;2.75;;;1.42;;
36829;SDS011;22767;47.328;9.640;2024-03-06T01:29:52;1.45;;;1.20;;
36829;SDS011;22767;47.328;9.640;2024-03-06T01:32:18;2.05;;;0.90;;
36829;SDS011;22767;47.328;9.640;2024-03-06T01:34:44;1.15;;;1.00;;
36829;SDS011;22767;47.328;9.640;2024-03-06T01:37:10;1.75;;;0.95;;
36829;SDS011;22767;47.328;9.640;2024-03-06T01:39:36;0.90;;;0.90;;
36829;SDS011;22767;47.328;9.640;2024-03-06T01:42:09;1.75;;;1.00;;
36829;SDS011;22767;47.328;9.640;2024-03-06T01:47:01;1.77;;;1.10;;
36829;SDS011;22767;47.328;9.640;2024-03-06T01:49:27;1.15;;;1.08;;
36829;SDS011;22767;47.328;9.640;2024-03-06T01:51:53;3.72;;;1.10;;
36829;SDS011;22767;47.328;9.640;2024-03-06T01:54:21;2.75;;;1.10;;
36829;SDS011;22767;47.328;9.640;2024-03-06T01:56:47;2.08;;;0.95;;
36829;SDS011;22767;47.328;9.640;2024-03-06T01:59:15;1.27;;;1.08;;
36829;SDS011;22767;47.328;9.640;2024-03-06T02:01:42;1.35;;;1.05;;
36829;SDS011;22767;47.328;9.640;2024-03-06T02:04:15;2.33;;;1.27;;
36829;SDS011;22767;47.328;9.640;2024-03-06T02:06:45;2.78;;;1.10;;
36829;SDS011;22767;47.328;9.640;2024-03-06T02:09:18;1.33;;;1.20;;
36829;SDS011;22767;47.328;9.640;2024-03-06T02:11:44;2.55;;;1.00;;
36829;SDS011;22767;47.328;9.640;2024-03-06T02:14:11;1.40;;;1.30;;
36829;SDS011;22767;47.328;9.640;2024-03-06T02:16:37;2.05;;;1.23;;
36829;SDS011;22767;47.328;9.640;2024-03-06T02:19:07;2.17;;;1.30;;
36829;SDS011;22767;47.328;9.640;2024-03-06T02:21:33;2.08;;;1.10;;
36829;SDS011;22767;47.328;9.640;2024-03-06T02:23:59;1.50;;;0.77;;
36829;SDS011;22767;47.328;9.640;2024-03-06T02:26:27;0.50;;;0.50;;
36829;SDS011;22767;47.328;9.640;2024-03-06T02:28:54;0.43;;;0.43;;
36829;SDS011;22767;47.328;9.640;2024-03-06T02:31:26;0.43;;;0.43;;
36829;SDS011;22767;47.328;9.640;2024-03-06T02:33:52;0.60;;;0.38;;
36829;SDS011;22767;47.328;9.640;2024-03-06T02:36:19;0.20;;;0.20;;
36829;SDS011;22767;47.328;9.640;2024-03-06T02:38:45;0.30;;;0.20;;
36829;SDS011;22767;47.328;9.640;2024-03-06T02:41:12;1.45;;;0.20;;
36829;SDS011;22767;47.328;9.640;2024-03-06T02:43:40;0.20;;;0.20;;
36829;SDS011;22767;47.328;9.640;2024-03-06T02:46:14;0.30;;;0.30;;
36829;SDS011;22767;47.328;9.640;2024-03-06T02:48:40;0.20;;;0.20;;
36829;SDS011;22767;47.328;9.640;2024-03-06T02:51:06;1.33;;;0.40;;
36829;SDS011;22767;47.328;9.640;2024-03-06T02:53:32;0.40;;;0.40;;
36829;SDS011;22767;47.328;9.640;2024-03-06T02:55:58;0.50;;;0.47;;
36829;SDS011;22767;47.328;9.640;2024-03-06T02:58:25;0.30;;;0.30;;
36829;SDS011;22767;47.328;9.640;2024-03-06T03:00:53;0.70;;;0.60;;
36829;SDS011;22767;47.328;9.640;2024-03-06T03:03:26;1.13;;;0.70;;
36829;SDS011;22767;47.328;9.640;2024-03-06T03:05:52;0.80;;;0.73;;
36829;SDS011;22767;47.328;9.640;2024-03-06T03:08:18;1.38;;;0.70;;
36829;SDS011;22767;47.328;9.640;2024-03-06T03:10:44;0.70;;;0.70;;
36829;SDS011;22767;47.328;9.640;2024-03-06T03:13:10;1.08;;;0.75;;
36829;SDS011;22767;47.328;9.640;2024-03-06T03:15:36;0.95;;;0.77;;
36829;SDS011;22767;47.328;9.640;2024-03-06T03:18:02;1.50;;;0.70;;
36829;SDS011;22767;47.328;9.640;2024-03-06T03:20:28;0.75;;;0.60;;
36829;SDS011;22767;47.328;9.640;2024-03-06T03:22:54;1.05;;;0.60;;
36829;SDS011;22767;47.328;9.640;2024-03-06T03:25:20;0.80;;;0.73;;
36829;SDS011;22767;47.328;9.640;2024-03-06T03:27:47;0.55;;;0.50;;
36829;SDS011;22767;47.328;9.640;2024-03-06T03:30:13;0.50;;;0.50;;
36829;SDS011;22767;47.328;9.640;2024-03-06T03:32:40;0.47;;;0.47;;
36829;SDS011;22767;47.328;9.640;2024-03-06T03:35:06;0.60;;;0.60;;
36829;SDS011;22767;47.328;9.640;2024-03-06T03:37:33;0.50;;;0.50;;
36829;SDS011;22767;47.328;9.640;2024-03-06T03:39:59;0.70;;;0.70;;
36829;SDS011;22767;47.328;9.640;2024-03-06T03:42:25;0.30;;;0.30;;
36829;SDS011;22767;47.328;9.640;2024-03-06T03:44:51;0.52;;;0.52;;
36829;SDS011;22767;47.328;9.640;2024-03-06T03:47:17;0.50;;;0.40;;
36829;SDS011;22767;47.328;9.640;2024-03-06T03:49:45;0.40;;;0.40;;
36829;SDS011;22767;47.328;9.640;2024-03-06T03:52:18;0.60;;;0.60;;
36829;SDS011;22767;47.328;9.640;2024-03-06T03:54:44;0.60;;;0.60;;
36829;SDS011;22767;47.328;9.640;2024-03-06T03:57:10;0.50;;;0.50;;
36829;SDS011;22767;47.328;9.640;2024-03-06T03:59:38;0.70;;;0.70;;
36829;SDS011;22767;47.328;9.640;2024-03-06T04:02:13;1.10;;;0.77;;
36829;SDS011;22767;47.328;9.640;2024-03-06T04:04:46;0.77;;;0.77;;
36829;SDS011;22767;47.328;9.640;2024-03-06T04:07:12;1.73;;;1.00;;
36829;SDS011;22767;47.328;9.640;2024-03-06T04:09:38;0.82;;;0.75;;
36829;SDS011;22767;47.328;9.640;2024-03-06T04:12:04;0.70;;;0.70;;
36829;SDS011;22767;47.328;9.640;2024-03-06T04:14:30;0.40;;;0.40;;
36829;SDS011;22767;47.328;9.640;2024-03-06T04:16:56;0.65;;;0.60;;
36829;SDS011;22767;47.328;9.640;2024-03-06T04:19:22;1.27;;;0.40;;
36829;SDS011;22767;47.328;9.640;2024-03-06T04:21:48;0.30;;;0.30;;
36829;SDS011;22767;47.328;9.640;2024-03-06T04:24:14;0.30;;;0.30;;
36829;SDS011;22767;47.328;9.640;2024-03-06T04:26:40;1.33;;;1.02;;
36829;SDS011;22767;47.328;9.640;2024-03-06T04:29:06;0.77;;;0.30;;
36829;SDS011;22767;47.328;9.640;2024-03-06T04:31:32;1.00;;;0.38;;
36829;SDS011;22767;47.328;9.640;2024-03-06T04:34:00;0.40;;;0.40;;
36829;SDS011;22767;47.328;9.640;2024-03-06T04:36:27;0.30;;;0.30;;
36829;SDS011;22767;47.328;9.640;2024-03-06T04:39:00;0.30;;;0.30;;
36829;SDS011;22767;47.328;9.640;2024-03-06T04:41:26;0.20;;;0.20;;
36829;SDS011;22767;47.328;9.640;2024-03-06T04:43:52;0.30;;;0.30;;
36829;SDS011;22767;47.328;9.640;2024-03-06T04:46:18;0.40;;;0.25;;
36829;SDS011;22767;47.328;9.640;2024-03-06T04:48:51;0.10;;;0.10;;
36829;SDS011;22767;47.328;9.640;2024-03-06T04:51:17;0.20;;;0.20;;
36829;SDS011;22767;47.328;9.640;2024-03-06T04:53:46;0.47;;;0.20;;
36829;SDS011;22767;47.328;9.640;2024-03-06T04:56:12;0.80;;;0.30;;
36829;SDS011;22767;47.328;9.640;2024-03-06T04:58:38;1.38;;;0.40;;
36829;SDS011;22767;47.328;9.640;2024-03-06T05:01:04;0.32;;;0.30;;
36829;SDS011;22767;47.328;9.640;2024-03-06T05:03:30;1.15;;;0.50;;
36829;SDS011;22767;47.328;9.640;2024-03-06T05:05:56;0.52;;;0.52;;
36829;SDS011;22767;47.328;9.640;2024-03-06T05:08:22;1.10;;;0.70;;
36829;SDS011;22767;47.328;9.640;2024-03-06T05:10:48;1.98;;;1.17;;
36829;SDS011;22767;47.328;9.640;2024-03-06T05:13:14;2.00;;;1.27;;
36829;SDS011;22767;47.328;9.640;2024-03-06T05:15:47;1.80;;;1.17;;
36829;SDS011;22767;47.328;9.640;2024-03-06T05:18:13;1.05;;;0.70;;
36829;SDS011;22767;47.328;9.640;2024-03-06T05:20:39;0.98;;;0.63;;
36829;SDS011;22767;47.328;9.640;2024-03-06T05:23:05;1.23;;;0.90;;
36829;SDS011;22767;47.328;9.640;2024-03-06T05:25:31;1.00;;;0.60;;
36829;SDS011;22767;47.328;9.640;2024-03-06T05:27:57;0.60;;;0.32;;
36829;SDS011;22767;47.328;9.640;2024-03-06T05:30:23;0.38;;;0.30;;
36829;SDS011;22767;47.328;9.640;2024-03-06T05:32:49;1.63;;;0.70;;
36829;SDS011;22767;47.328;9.640;2024-03-06T05:35:15;0.80;;;0.50;;
36829;SDS011;22767;47.328;9.640;2024-03-06T05:37:42;0.80;;;0.60;;
36829;SDS011;22767;47.328;9.640;2024-03-06T05:40:15;1.00;;;0.80;;
36829;SDS011;22767;47.328;9.640;2024-03-06T05:42:41;2.10;;;0.60;;
36829;SDS011;22767;47.328;9.640;2024-03-06T05:45:07;0.40;;;0.38;;
36829;SDS011;22767;47.328;9.640;2024-03-06T05:47:37;2.33;;;0.60;;
36829;SDS011;22767;47.328;9.640;2024-03-06T05:50:10;0.73;;;0.47;;
36829;SDS011;22767;47.328;9.640;2024-03-06T05:52:36;0.95;;;0.70;;
36829;SDS011;22767;47.328;9.640;2024-03-06T05:55:02;1.45;;;0.52;;
36829;SDS011;22767;47.328;9.640;2024-03-06T05:57:31;1.15;;;0.60;;
36829;SDS011;22767;47.328;9.640;2024-03-06T05:59:57;0.50;;;0.50;;
36829;SDS011;22767;47.328;9.640;2024-03-06T06:02:23;1.13;;;0.70;;
36829;SDS011;22767;47.328;9.640;2024-03-06T06:04:49;1.05;;;0.75;;
36829;SDS011;22767;47.328;9.640;2024-03-06T06:07:22;1.65;;;0.90;;
36829;SDS011;22767;47.328;9.640;2024-03-06T06:09:48;0.82;;;0.80;;
36829;SDS011;22767;47.328;9.640;2024-03-06T06:12:14;0.68;;;0.65;;
36829;SDS011;22767;47.328;9.640;2024-03-06T06:14:40;1.48;;;0.80;;
36829;SDS011;22767;47.328;9.640;2024-03-06T06:17:06;0.60;;;0.60;;
36829;SDS011;22767;47.328;9.640;2024-03-06T06:19:32;1.85;;;0.90;;
36829;SDS011;22767;47.328;9.640;2024-03-06T06:21:58;2.42;;;1.35;;
36829;SDS011;22767;47.328;9.640;2024-03-06T06:24:24;1.33;;;1.13;;
36829;SDS011;22767;47.328;9.640;2024-03-06T06:26:50;1.75;;;1.17;;
36829;SDS011;22767;47.328;9.640;2024-03-06T06:29:24;1.33;;;1.08;;
36829;SDS011;22767;47.328;9.640;2024-03-06T06:31:50;1.35;;;0.90;;
36829;SDS011;22767;47.328;9.640;2024-03-06T06:34:23;1.45;;;0.98;;
36829;SDS011;22767;47.328;9.640;2024-03-06T06:36:52;0.70;;;0.70;;
36829;SDS011;22767;47.328;9.640;2024-03-06T06:39:19;1.48;;;0.90;;
36829;SDS011;22767;47.328;9.640;2024-03-06T06:41:45;1.20;;;0.63;;
36829;SDS011;22767;47.328;9.640;2024-03-06T06:44:11;0.70;;;0.70;;
36829;SDS011;22767;47.328;9.640;2024-03-06T06:46:37;0.65;;;0.65;;
36829;SDS011;22767;47.328;9.640;2024-03-06T06:49:03;0.80;;;0.80;;
36829;SDS011;22767;47.328;9.640;2024-03-06T06:51:29;1.10;;;1.00;;
36829;SDS011;22767;47.328;9.640;2024-03-06T06:53:55;0.80;;;0.80;;
36829;SDS011;22767;47.328;9.640;2024-03-06T06:56:21;0.80;;;0.70;;
36829;SDS011;22767;47.328;9.640;2024-03-06T06:58:49;1.63;;;0.93;;
36829;SDS011;22767;47.328;9.640;2024-03-06T07:01:15;1.40;;;1.23;;
36829;SDS011;22767;47.328;9.640;2024-03-06T07:03:48;1.52;;;1.15;;
36829;SDS011;22767;47.328;9.640;2024-03-06T07:06:20;1.23;;;1.10;;
36829;SDS011;22767;47.328;9.640;2024-03-06T07:08:47;1.25;;;1.15;;
36829;SDS011;22767;47.328;9.640;2024-03-06T07:11:13;1.77;;;1.13;;
36829;SDS011;22767;47.328;9.640;2024-03-06T07:13:39;5.88;;;3.55;;
36829;SDS011;22767;47.328;9.640;2024-03-06T07:16:05;1.63;;;1.40;;
36829;SDS011;22767;47.328;9.640;2024-03-06T07:18:31;1.48;;;1.35;;
36829;SDS011;22767;47.328;9.640;2024-03-06T07:20:57;2.40;;;1.42;;
36829;SDS011;22767;47.328;9.640;2024-03-06T07:23:30;3.58;;;2.20;;
36829;SDS011;22767;47.328;9.640;2024-03-06T07:25:56;2.78;;;1.75;;
36829;SDS011;22767;47.328;9.640;2024-03-06T07:28:24;3.20;;;1.80;;
36829;SDS011;22767;47.328;9.640;2024-03-06T07:30:56;1.70;;;1.50;;
36829;SDS011;22767;47.328;9.640;2024-03-06T07:33:22;2.10;;;1.60;;
36829;SDS011;22767;47.328;9.640;2024-03-06T07:35:48;1.30;;;1.20;;
36829;SDS011;22767;47.328;9.640;2024-03-06T07:38:14;1.55;;;1.38;;
36829;SDS011;22767;47.328;9.640;2024-03-06T07:40:41;1.45;;;1.35;;
36829;SDS011;22767;47.328;9.640;2024-03-06T07:43:07;3.95;;;1.80;;
36829;SDS011;22767;47.328;9.640;2024-03-06T07:45:33;2.00;;;1.40;;
36829;SDS011;22767;47.328;9.640;2024-03-06T07:47:59;1.70;;;1.60;;
36829;SDS011;22767;47.328;9.640;2024-03-06T07:50:25;2.20;;;2.00;;
36829;SDS011;22767;47.328;9.640;2024-03-06T07:52:52;2.22;;;2.03;;
36829;SDS011;22767;47.328;9.640;2024-03-06T07:55:25;3.78;;;1.90;;
36829;SDS011;22767;47.328;9.640;2024-03-06T07:57:52;2.17;;;1.63;;
36829;SDS011;22767;47.328;9.640;2024-03-06T08:00:18;2.20;;;1.77;;
36829;SDS011;22767;47.328;9.640;2024-03-06T08:02:45;3.58;;;2.05;;
36829;SDS011;22767;47.328;9.640;2024-03-06T08:05:15;6.72;;;3.40;;
36829;SDS011;22767;47.328;9.640;2024-03-06T08:07:41;3.75;;;2.40;;
36829;SDS011;22767;47.328;9.640;2024-03-06T08:10:11;4.68;;;2.35;;
36829;SDS011;22767;47.328;9.640;2024-03-06T08:12:41;5.15;;;2.90;;
36829;SDS011;22767;47.328;9.640;2024-03-06T08:15:08;7.20;;;3.55;;
36829;SDS011;22767;47.328;9.640;2024-03-06T08:17:34;6.63;;;3.38;;
36829;SDS011;22767;47.328;9.640;2024-03-06T08:20:08;7.57;;;3.45;;
36829;SDS011;22767;47.328;9.640;2024-03-06T08:22:35;4.30;;;2.80;;
36829;SDS011;22767;47.328;9.640;2024-03-06T08:25:07;5.38;;;3.08;;
36829;SDS011;22767;47.328;9.640;2024-03-06T08:27:38;4.68;;;2.88;;
36829;SDS011;22767;47.328;9.640;2024-03-06T08:30:04;2.33;;;1.73;;
36829;SDS011;22767;47.328;9.640;2024-03-06T08:32:31;2.97;;;2.15;;
36829;SDS011;22767;47.328;9.640;2024-03-06T08:35:02;1.30;;;1.20;;
36829;SDS011;22767;47.328;9.640;2024-03-06T08:37:30;1.10;;;0.98;;
36829;SDS011;22767;47.328;9.640;2024-03-06T08:39:57;0.85;;;0.85;;
36829;SDS011;22767;47.328;9.640;2024-03-06T08:42:29;1.00;;;0.75;;
36829;SDS011;22767;47.328;9.640;2024-03-06T08:44:56;1.00;;;0.70;;
36829;SDS011;22767;47.328;9.640;2024-03-06T08:47:22;0.80;;;0.80;;
36829;SDS011;22767;47.328;9.640;2024-03-06T08:49:48;0.95;;;0.95;;
36829;SDS011;22767;47.328;9.640;2024-03-06T08:52:15;0.80;;;0.80;;
36829;SDS011;22767;47.328;9.640;2024-03-06T08:54:41;2.28;;;1.10;;
36829;SDS011;22767;47.328;9.640;2024-03-06T08:57:07;2.13;;;1.63;;
36829;SDS011;22767;47.328;9.640;2024-03-06T08:59:36;2.22;;;1.58;;
36829;SDS011;22767;47.328;9.640;2024-03-06T09:04:58;0.57;;;0.57;;
36829;SDS011;22767;47.328;9.640;2024-03-06T09:07:24;0.65;;;0.65;;
36829;SDS011;22767;47.328;9.640;2024-03-06T09:09:50;0.50;;;0.50;;
36829;SDS011;22767;47.328;9.640;2024-03-06T09:12:19;0.55;;;0.50;;
36829;SDS011;22767;47.328;9.640;2024-03-06T09:14:51;0.60;;;0.60;;
36829;SDS011;22767;47.328;9.640;2024-03-06T09:17:21;0.50;;;0.50;;
36829;SDS011;22767;47.328;9.640;2024-03-06T09:19:47;0.57;;;0.57;;
36829;SDS011;22767;47.328;9.640;2024-03-06T09:22:13;0.57;;;0.52;;
36829;SDS011;22767;47.328;9.640;2024-03-06T09:24:39;0.68;;;0.60;;
36829;SDS011;22767;47.328;9.640;2024-03-06T09:27:05;1.67;;;0.52;;
36829;SDS011;22767;47.328;9.640;2024-03-06T09:29:34;0.43;;;0.43;;
36829;SDS011;22767;47.328;9.640;2024-03-06T09:32:00;0.50;;;0.50;;
36829;SDS011;22767;47.328;9.640;2024-03-06T09:34:27;0.40;;;0.40;;
36829;SDS011;22767;47.328;9.640;2024-03-06T09:36:53;1.02;;;0.60;;
36829;SDS011;22767;47.328;9.640;2024-03-06T09:39:19;1.10;;;0.88;;
36829;SDS011;22767;47.328;9.640;2024-03-06T09:41:46;0.77;;;0.77;;
36829;SDS011;22767;47.328;9.640;2024-03-06T09:44:12;0.65;;;0.63;;
36829;SDS011;22767;47.328;9.640;2024-03-06T09:46:41;0.40;;;0.40;;
36829;SDS011;22767;47.328;9.640;2024-03-06T09:49:09;1.40;;;0.73;;
36829;SDS011;22767;47.328;9.640;2024-03-06T09:51:35;0.65;;;0.40;;
36829;SDS011;22767;47.328;9.640;2024-03-06T09:54:03;0.40;;;0.40;;
36829;SDS011;22767;47.328;9.640;2024-03-06T09:56:40;0.30;;;0.30;;
36829;SDS011;22767;47.328;9.640;2024-03-06T09:59:06;0.30;;;0.28;;
36829;SDS011;22767;47.328;9.640;2024-03-06T10:01:55;0.30;;;0.30;;
36829;SDS011;22767;47.328;9.640;2024-03-06T10:04:26;0.20;;;0.20;;
36829;SDS011;22767;47.328;9.640;2024-03-06T10:06:56;0.40;;;0.40;;
36829;SDS011;22767;47.328;9.640;2024-03-06T10:09:23;0.30;;;0.28;;
36829;SDS011;22767;47.328;9.640;2024-03-06T10:11:49;0.40;;;0.40;;
36829;SDS011;22767;47.328;9.640;2024-03-06T10:14:18;0.75;;;0.40;;
36829;SDS011;22767;47.328;9.640;2024-03-06T10:16:51;1.10;;;0.40;;
36829;SDS011;22767;47.328;9.640;2024-03-06T10:19:18;0.28;;;0.28;;
36829;SDS011;22767;47.328;9.640;2024-03-06T10:21:50;0.40;;;0.30;;
36829;SDS011;22767;47.328;9.640;2024-03-06T10:24:20;0.40;;;0.40;;
36829;SDS011;22767;47.328;9.640;2024-03-06T10:26:48;0.40;;;0.40;;
36829;SDS011;22767;47.328;9.640;2024-03-06T10:29:17;0.40;;;0.40;;
36829;SDS011;22767;47.328;9.640;2024-03-06T10:32:02;0.30;;;0.30;;
36829;SDS011;22767;47.328;9.640;2024-03-06T10:34:34;2.53;;;1.50;;
36829;SDS011;22767;47.328;9.640;2024-03-06T10:37:01;0.57;;;0.57;;
36829;SDS011;22767;47.328;9.640;2024-03-06T10:39:29;1.13;;;0.50;;
36829;SDS011;22767;47.328;9.640;2024-03-06T10:41:56;0.63;;;0.50;;
36829;SDS011;22767;47.328;9.640;2024-03-06T10:44:23;0.50;;;0.50;;
36829;SDS011;22767;47.328;9.640;2024-03-06T10:47:00;0.40;;;0.40;;
36829;SDS011;22767;47.328;9.640;2024-03-06T10:49:26;0.60;;;0.52;;
36829;SDS011;22767;47.328;9.640;2024-03-06T10:51:53;0.57;;;0.57;;
36829;SDS011;22767;47.328;9.640;2024-03-06T10:54:19;0.55;;;0.55;;
36829;SDS011;22767;47.328;9.640;2024-03-06T10:56:47;0.95;;;0.70;;
36829;SDS011;22767;47.328;9.640;2024-03-06T10:59:19;0.93;;;0.50;;
36829;SDS011;22767;47.328;9.640;2024-03-06T11:01:45;0.60;;;0.60;;
36829;SDS011;22767;47.328;9.640;2024-03-06T11:04:12;0.60;;;0.60;;
36829;SDS011;22767;47.328;9.640;2024-03-06T11:06:40;1.00;;;0.60;;
36829;SDS011;22767;47.328;9.640;2024-03-06T11:09:06;1.17;;;0.60;;
36829;SDS011;22767;47.328;9.640;2024-03-06T11:11:47;0.47;;;0.45;;
36829;SDS011;22767;47.328;9.640;2024-03-06T11:14:13;0.90;;;0.40;;
36829;SDS011;22767;47.328;9.640;2024-03-06T11:19:32;1.35;;;0.77;;
36829;SDS011;22767;47.328;9.640;2024-03-06T11:21:58;3.78;;;1.65;;
36829;SDS011;22767;47.328;9.640;2024-03-06T11:24:33;1.83;;;1.30;;
36829;SDS011;22767;47.328;9.640;2024-03-06T11:27:00;1.77;;;1.20;;
36829;SDS011;22767;47.328;9.640;2024-03-06T11:29:27;1.00;;;0.90;;
36829;SDS011;22767;47.328;9.640;2024-03-06T11:32:06;1.40;;;1.15;;
36829;SDS011;22767;47.328;9.640;2024-03-06T11:34:36;1.98;;;0.95;;
36829;SDS011;22767;47.328;9.640;2024-03-06T11:37:09;2.38;;;1.40;;
36829;SDS011;22767;47.328;9.640;2024-03-06T11:39:36;2.67;;;1.08;;
36829;SDS011;22767;47.328;9.640;2024-03-06T11:42:02;1.58;;;1.00;;
36829;SDS011;22767;47.328;9.640;2024-03-06T11:44:33;3.67;;;1.90;;
36829;SDS011;22767;47.328;9.640;2024-03-06T11:47:03;2.22;;;1.20;;
36829;SDS011;22767;47.328;9.640;2024-03-06T11:49:36;1.70;;;1.10;;
36829;SDS011;22767;47.328;9.640;2024-03-06T11:52:04;1.60;;;0.93;;
36829;SDS011;22767;47.328;9.640;2024-03-06T11:54:33;1.52;;;0.95;;
36829;SDS011;22767;47.328;9.640;2024-03-06T11:57:12;1.65;;;1.02;;
36829;SDS011;22767;47.328;9.640;2024-03-06T11:59:41;1.73;;;1.02;;
36829;SDS011;22767;47.328;9.640;2024-03-06T12:02:07;1.10;;;0.70;;
36829;SDS011;22767;47.328;9.640;2024-03-06T12:04:35;1.65;;;0.90;;
36829;SDS011;22767;47.328;9.640;2024-03-06T12:07:09;2.50;;;1.00;;
36829;SDS011;22767;47.328;9.640;2024-03-06T12:09:37;2.65;;;1.20;;
36829;SDS011;22767;47.328;9.640;2024-03-06T12:12:03;1.80;;;1.08;;
36829;SDS011;22767;47.328;9.640;2024-03-06T12:14:29;1.05;;;0.52;;
36829;SDS011;22767;47.328;9.640;2024-03-06T12:17:00;1.10;;;0.95;;
36829;SDS011;22767;47.328;9.640;2024-03-06T12:19:32;0.60;;;0.57;;
36829;SDS011;22767;47.328;9.640;2024-03-06T12:22:02;0.60;;;0.43;;
36829;SDS011;22767;47.328;9.640;2024-03-06T12:24:29;0.60;;;0.52;;
36829;SDS011;22767;47.328;9.640;2024-03-06T12:27:14;2.15;;;0.93;;
36829;SDS011;22767;47.328;9.640;2024-03-06T12:29:40;1.67;;;1.05;;
36829;SDS011;22767;47.328;9.640;2024-03-06T12:32:15;2.55;;;1.30;;
36829;SDS011;22767;47.328;9.640;2024-03-06T12:34:42;2.45;;;1.60;;
36829;SDS011;22767;47.328;9.640;2024-03-06T12:37:08;2.85;;;1.63;;
36829;SDS011;22767;47.328;9.640;2024-03-06T12:39:35;2.63;;;1.45;;
36829;SDS011;22767;47.328;9.640;2024-03-06T12:42:14;1.60;;;1.15;;
36829;SDS011;22767;47.328;9.640;2024-03-06T12:44:49;1.70;;;1.30;;
36829;SDS011;22767;47.328;9.640;2024-03-06T12:47:15;2.65;;;1.45;;
36829;SDS011;22767;47.328;9.640;2024-03-06T12:49:48;3.00;;;1.42;;
36829;SDS011;22767;47.328;9.640;2024-03-06T12:52:16;1.27;;;1.10;;
36829;SDS011;22767;47.328;9.640;2024-03-06T12:54:42;1.20;;;0.80;;
36829;SDS011;22767;47.328;9.640;2024-03-06T12:57:08;0.88;;;0.80;;
36829;SDS011;22767;47.328;9.640;2024-03-06T12:59:34;0.95;;;0.95;;
36829;SDS011;22767;47.328;9.640;2024-03-06T13:02:00;0.65;;;0.63;;
36829;SDS011;22767;47.328;9.640;2024-03-06T13:04:32;0.68;;;0.68;;
36829;SDS011;22767;47.328;9.640;2024-03-06T13:09:24;0.95;;;0.82;;
36829;SDS011;22767;47.328;9.640;2024-03-06T13:11:50;0.93;;;0.60;;
36829;SDS011;22767;47.328;9.640;2024-03-06T13:14:16;0.77;;;0.77;;
36829;SDS011;22767;47.328;9.640;2024-03-06T13:16:42;0.80;;;0.80;;
36829;SDS011;22767;47.328;9.640;2024-03-06T13:19:08;1.10;;;1.00;;
36829;SDS011;22767;47.328;9.640;2024-03-06T13:21:36;1.38;;;0.88;;
36829;SDS011;22767;47.328;9.640;2024-03-06T13:24:02;1.00;;;0.60;;
36829;SDS011;22767;47.328;9.640;2024-03-06T13:26:35;0.93;;;0.80;;
36829;SDS011;22767;47.328;9.640;2024-03-06T13:29:02;1.55;;;1.00;;
36829;SDS011;22767;47.328;9.640;2024-03-06T13:31:35;0.70;;;0.50;;
36829;SDS011;22767;47.328;9.640;2024-03-06T13:34:03;0.82;;;0.50;;
36829;SDS011;22767;47.328;9.640;2024-03-06T13:36:35;0.40;;;0.40;;
36829;SDS011;22767;47.328;9.640;2024-03-06T13:39:01;0.80;;;0.80;;
36829;SDS011;22767;47.328;9.640;2024-03-06T13:41:27;1.35;;;1.20;;
36829;SDS011;22767;47.328;9.640;2024-03-06T13:43:54;1.02;;;0.80;;
36829;SDS011;22767;47.328;9.640;2024-03-06T13:46:20;0.82;;;0.70;;
36829;SDS011;22767;47.328;9.640;2024-03-06T13:48:46;0.68;;;0.50;;
36829;SDS011;22767;47.328;9.640;2024-03-06T13:51:16;0.30;;;0.30;;
36829;SDS011;22767;47.328;9.640;2024-03-06T13:53:42;0.43;;;0.40;;
36829;SDS011;22767;47.328;9.640;2024-03-06T13:56:08;0.25;;;0.20;;
36829;SDS011;22767;47.328;9.640;2024-03-06T13:58:34;0.40;;;0.40;;
36829;SDS011;22767;47.328;9.640;2024-03-06T14:01:00;0.35;;;0.32;;
36829;SDS011;22767;47.328;9.640;2024-03-06T14:03:26;0.40;;;0.40;;
36829;SDS011;22767;47.328;9.640;2024-03-06T14:05:52;0.50;;;0.40;;
36829;SDS011;22767;47.328;9.640;2024-03-06T14:08:25;0.50;;;0.30;;
36829;SDS011;22767;47.328;9.640;2024-03-06T14:10:58;0.63;;;0.40;;
36829;SDS011;22767;47.328;9.640;2024-03-06T14:13:24;1.55;;;0.70;;
36829;SDS011;22767;47.328;9.640;2024-03-06T14:15:50;0.80;;;0.80;;
36829;SDS011;22767;47.328;9.640;2024-03-06T14:18:18;1.50;;;0.60;;
36829;SDS011;22767;47.328;9.640;2024-03-06T14:20:44;1.17;;;0.80;;
36829;SDS011;22767;47.328;9.640;2024-03-06T14:23:10;0.38;;;0.38;;
36829;SDS011;22767;47.328;9.640;2024-03-06T14:25:40;1.30;;;0.70;;
36829;SDS011;22767;47.328;9.640;2024-03-06T14:28:06;0.50;;;0.30;;
36829;SDS011;22767;47.328;9.640;2024-03-06T14:30:39;0.70;;;0.40;;
36829;SDS011;22767;47.328;9.640;2024-03-06T14:33:11;0.40;;;0.40;;
36829;SDS011;22767;47.328;9.640;2024-03-06T14:35:37;0.20;;;0.20;;
36829;SDS011;22767;47.328;9.640;2024-03-06T14:38:03;0.57;;;0.40;;
36829;SDS011;22767;47.328;9.640;2024-03-06T14:40:29;1.10;;;0.20;;
36829;SDS011;22767;47.328;9.640;2024-03-06T14:42:55;0.20;;;0.20;;
36829;SDS011;22767;47.328;9.640;2024-03-06T14:45:21;0.30;;;0.20;;
36829;SDS011;22767;47.328;9.640;2024-03-06T14:47:48;0.55;;;0.50;;
36829;SDS011;22767;47.328;9.640;2024-03-06T14:50:14;0.70;;;0.50;;
36829;SDS011;22767;47.328;9.640;2024-03-06T14:52:40;0.40;;;0.40;;
36829;SDS011;22767;47.328;9.640;2024-03-06T14:55:20;0.50;;;0.43;;
36829;SDS011;22767;47.328;9.640;2024-03-06T14:57:53;0.60;;;0.40;;
36829;SDS011;22767;47.328;9.640;2024-03-06T15:00:19;1.23;;;0.50;;
36829;SDS011;22767;47.328;9.640;2024-03-06T15:02:48;0.30;;;0.30;;